Ana Sayfa
METAR-TAF:

METAR-TAF

Havaalanları :

Deer Park Airport

Deer Park, Washington, Amerika Birleşik Devletleri

Enlem: 47-58-27N, Boylam: 117-25-42W, yükseklik: 672 m

Güncel hava durumu gözlemi

Rapor saat 19:53 UTC de 1 saat ve 11 dakika önce yapıldı.
Rüzgar güneybatıdan 12 kt ve 22 kt'a kadar ani rüzgarlar
Sıcaklık 12°C
Nem 32%
Basınç 1023 hPa
Görüş mesafesi: 16.1 km
6000 ft yükseklikte az bulutlu

METAR: KDEW 211953Z AUTO 22012G22KT 10SM FEW060 12/M04 A3020 RMK AO2 SLP226 T01171044 $

Saat: 14:04 (21:04 UTC)


TAF: eksik

4.000'den fazla havaalanı için hava durumu gözlemleri ve tahminleri (METAR ve TAF raporları).

Kullanılabilir istasyonlar harita üzerinde sarı ve kırmızı noktalarla gösterilir.

İstasyonun adını görmek için fareyi noktanın üzerinde gezdirin.

Sonrasında hava gözlem ve tahminlerini görmek için tıklayın.

Haritayı değiştirmek için: yaklaştırmak için siyah artı işaretli yeşil düğmeye ve uzaklaştırmak için de eksi işaretli düğmeye hızla tıklayın; bitişik haritalar için yeşil okları kullanın.


METAR-TAF: